createdAt,value
2019-06-20T00:00:44.140Z,2.03
2019-06-20T00:03:14.526Z,2.20
2019-06-20T00:05:44.797Z,2.20
2019-06-20T00:08:15.953Z,2.23
2019-06-20T00:10:46.422Z,2.50
2019-06-20T00:13:16.727Z,1.80
2019-06-20T00:15:46.993Z,3.70
2019-06-20T00:18:18.569Z,2.47
2019-06-20T00:20:48.968Z,14.60
2019-06-20T00:23:19.319Z,18.00
2019-06-20T00:25:49.767Z,36.97
2019-06-20T00:28:21.161Z,28.83
2019-06-20T00:30:51.640Z,15.10
2019-06-20T00:33:22.001Z,9.50
2019-06-20T00:35:52.325Z,10.60
2019-06-20T00:38:23.327Z,6.87
2019-06-20T00:40:53.818Z,6.23
2019-06-20T00:43:24.213Z,5.50
2019-06-20T00:45:54.565Z,3.63
2019-06-20T00:48:27.967Z,3.37
2019-06-20T00:50:58.282Z,2.80
2019-06-20T00:53:28.749Z,19.43
2019-06-20T00:55:59.129Z,25.83
2019-06-20T00:58:30.952Z,13.57
2019-06-20T01:01:01.345Z,9.53
2019-06-20T01:03:31.623Z,4.35
2019-06-20T01:06:02.368Z,4.77
2019-06-20T01:08:35.835Z,3.83
2019-06-20T01:11:04.839Z,4.30
2019-06-20T01:13:35.268Z,2.80
2019-06-20T01:16:05.557Z,2.27
2019-06-20T01:18:36.027Z,3.60
2019-06-20T01:21:18.432Z,3.47
2019-06-20T01:23:48.889Z,3.50
2019-06-20T01:26:19.176Z,2.90
2019-06-20T01:28:49.490Z,2.83
2019-06-20T01:31:19.783Z,2.47
2019-06-20T01:33:50.068Z,2.70
2019-06-20T01:36:22.144Z,2.90
2019-06-20T01:38:52.523Z,2.23
2019-06-20T01:41:23.115Z,2.37
2019-06-20T01:43:53.723Z,2.37
2019-06-20T01:46:24.048Z,2.30
2019-06-20T01:48:54.486Z,4.03
2019-06-20T01:51:24.907Z,2.00
2019-06-20T01:53:55.333Z,2.20
2019-06-20T01:56:25.798Z,1.70
2019-06-20T01:58:56.065Z,2.57
2019-06-20T02:01:26.522Z,2.20
2019-06-20T02:03:56.887Z,2.00
2019-06-20T02:06:27.144Z,2.27
2019-06-20T02:08:57.460Z,2.30
2019-06-20T02:11:27.838Z,2.50
2019-06-20T02:14:07.264Z,2.27
2019-06-20T02:16:30.290Z,2.47
2019-06-20T02:19:00.651Z,3.40
2019-06-20T02:21:30.900Z,2.50
2019-06-20T02:24:01.264Z,1.60
2019-06-20T02:26:31.708Z,2.90
2019-06-20T02:29:02.115Z,4.60
2019-06-20T02:31:32.434Z,2.13
2019-06-20T02:34:02.791Z,2.40
2019-06-20T02:36:33.231Z,3.63
2019-06-20T02:39:04.071Z,2.50
2019-06-20T02:41:34.382Z,4.10
2019-06-20T02:44:04.919Z,2.80
2019-06-20T02:46:35.262Z,2.57
2019-06-20T02:49:05.657Z,2.30
2019-06-20T02:51:35.918Z,2.30
2019-06-20T02:54:06.240Z,2.70
2019-06-20T02:56:36.572Z,1.97
2019-06-20T02:59:06.915Z,3.00
2019-06-20T03:01:37.355Z,4.10
2019-06-20T03:04:07.659Z,3.83
2019-06-20T03:06:37.908Z,2.23
2019-06-20T03:09:08.540Z,3.00
2019-06-20T03:11:38.815Z,2.43
2019-06-20T03:14:09.154Z,2.50
2019-06-20T03:16:39.468Z,2.73
2019-06-20T03:19:09.783Z,2.33
2019-06-20T03:21:40.051Z,2.50
2019-06-20T03:24:10.349Z,2.20
2019-06-20T03:26:40.625Z,2.37
2019-06-20T03:29:10.923Z,2.67
2019-06-20T03:31:41.205Z,2.50
2019-06-20T03:34:11.627Z,2.30
2019-06-20T03:36:41.941Z,2.10
2019-06-20T03:39:12.341Z,2.60
2019-06-20T03:41:42.791Z,2.50
2019-06-20T03:44:13.223Z,2.20
2019-06-20T03:46:43.542Z,2.50
2019-06-20T03:49:13.856Z,2.70
2019-06-20T03:51:44.222Z,2.40
2019-06-20T03:54:14.617Z,2.10
2019-06-20T03:56:44.990Z,2.00
2019-06-20T03:59:15.272Z,2.50
2019-06-20T04:01:49.022Z,2.13
2019-06-20T04:04:17.592Z,2.40
2019-06-20T04:06:47.994Z,2.20
2019-06-20T04:09:18.364Z,2.50
2019-06-20T04:11:48.765Z,2.90
2019-06-20T04:14:19.179Z,2.00
2019-06-20T04:16:49.508Z,2.87
2019-06-20T04:19:19.971Z,3.67
2019-06-20T04:21:50.258Z,4.00
2019-06-20T04:24:20.624Z,4.03
2019-06-20T04:26:50.911Z,3.97
2019-06-20T04:29:21.385Z,3.60
2019-06-20T04:31:51.645Z,4.60
2019-06-20T04:34:22.015Z,2.60
2019-06-20T04:36:52.340Z,2.60
2019-06-20T04:39:22.716Z,2.70
2019-06-20T04:41:52.953Z,2.33
2019-06-20T04:44:23.407Z,2.87
2019-06-20T04:47:07.764Z,2.10
2019-06-20T04:49:38.234Z,2.20
2019-06-20T04:52:08.587Z,2.80
2019-06-20T04:54:38.894Z,2.03
2019-06-20T04:57:09.219Z,2.57
2019-06-20T04:59:39.539Z,2.17
2019-06-20T05:02:09.875Z,2.63
2019-06-20T05:04:40.204Z,2.37
2019-06-20T05:07:20.179Z,2.20
2019-06-20T05:09:50.502Z,2.67
2019-06-20T05:12:21.152Z,3.07
2019-06-20T05:14:51.455Z,3.20
2019-06-20T05:17:21.751Z,2.07
2019-06-20T05:19:52.097Z,2.13
2019-06-20T05:22:22.624Z,1.80
2019-06-20T05:24:52.962Z,2.20
2019-06-20T05:27:23.247Z,2.30
2019-06-20T05:29:53.672Z,2.20
2019-06-20T05:32:23.988Z,2.53
2019-06-20T05:34:54.227Z,3.50
2019-06-20T05:37:24.523Z,3.80
2019-06-20T05:39:54.828Z,5.17
2019-06-20T05:42:25.283Z,4.90
2019-06-20T05:44:55.649Z,4.80
2019-06-20T05:47:26.075Z,3.57
2019-06-20T05:49:56.337Z,3.30
2019-06-20T05:52:26.708Z,2.50
2019-06-20T05:54:57.717Z,3.00
2019-06-20T05:57:28.121Z,2.70
2019-06-20T05:59:58.443Z,2.90
2019-06-20T06:02:28.875Z,3.00
2019-06-20T06:04:59.212Z,4.17
2019-06-20T06:07:29.525Z,3.00
2019-06-20T06:10:03.858Z,3.40
2019-06-20T06:12:33.831Z,3.00
2019-06-20T06:15:04.236Z,3.60
2019-06-20T06:17:34.509Z,3.20
2019-06-20T06:20:05.591Z,2.57
2019-06-20T06:22:35.897Z,2.40
2019-06-20T06:25:06.567Z,2.60
2019-06-20T06:27:36.938Z,3.10
2019-06-20T06:30:08.799Z,2.90
2019-06-20T06:32:40.269Z,2.70
2019-06-20T06:35:11.583Z,2.80
2019-06-20T06:37:41.834Z,3.07
2019-06-20T06:40:14.297Z,3.23
2019-06-20T06:42:44.547Z,2.40
2019-06-20T06:45:16.327Z,2.90
2019-06-20T06:47:46.647Z,2.87
2019-06-20T06:50:17.270Z,2.40
2019-06-20T06:52:47.516Z,2.20
2019-06-20T06:55:17.901Z,2.33
2019-06-20T06:57:48.171Z,2.33
2019-06-20T07:00:18.944Z,2.00
2019-06-20T07:02:49.251Z,2.20
2019-06-20T07:05:20.344Z,2.40
2019-06-20T07:07:50.628Z,2.40
2019-06-20T07:10:21.010Z,2.27
2019-06-20T07:12:51.355Z,2.60
2019-06-20T07:15:21.734Z,3.10
2019-06-20T07:17:52.154Z,2.50
2019-06-20T07:20:22.606Z,2.60
2019-06-20T07:22:53.328Z,3.67
2019-06-20T07:25:23.680Z,3.20
2019-06-20T07:27:54.003Z,3.20
2019-06-20T07:30:24.375Z,2.90
2019-06-20T07:32:54.673Z,2.80
2019-06-20T07:35:25.007Z,2.80
2019-06-20T07:37:55.423Z,2.80
2019-06-20T07:40:25.787Z,3.10
2019-06-20T07:42:56.115Z,2.60
2019-06-20T07:45:27.735Z,2.33
2019-06-20T07:47:58.347Z,2.30
2019-06-20T07:50:28.661Z,2.10
2019-06-20T07:53:02.457Z,2.40
2019-06-20T07:55:31.053Z,2.30
2019-06-20T07:58:01.360Z,2.10
2019-06-20T08:00:31.666Z,2.00
2019-06-20T08:03:02.248Z,1.97
2019-06-20T08:05:32.587Z,2.33
2019-06-20T08:08:02.970Z,2.20
2019-06-20T08:10:33.315Z,2.20
2019-06-20T08:13:03.646Z,2.30
2019-06-20T08:15:34.057Z,2.07
2019-06-20T08:18:04.527Z,2.13
2019-06-20T08:20:34.840Z,2.37
2019-06-20T08:23:05.176Z,2.10
2019-06-20T08:25:35.478Z,2.17
2019-06-20T08:28:06.589Z,1.90
2019-06-20T08:30:38.711Z,1.80
2019-06-20T08:33:11.974Z,1.90
2019-06-20T08:35:41.130Z,1.83
2019-06-20T08:38:11.507Z,1.97
2019-06-20T08:40:41.752Z,1.83
2019-06-20T08:43:12.178Z,1.80
2019-06-20T08:45:43.657Z,1.83
2019-06-20T08:48:14.104Z,1.80
2019-06-20T08:50:44.613Z,2.10
2019-06-20T08:53:16.047Z,2.00
2019-06-20T08:55:46.419Z,2.20
2019-06-20T08:58:16.688Z,1.80
2019-06-20T09:00:47.077Z,2.10
2019-06-20T09:03:17.504Z,2.10
2019-06-20T09:05:47.817Z,1.97
2019-06-20T09:08:18.325Z,1.70
2019-06-20T09:10:48.653Z,2.00
2019-06-20T09:13:22.493Z,1.90
2019-06-20T09:15:54.953Z,2.00
2019-06-20T09:18:25.239Z,2.13
2019-06-20T09:20:55.998Z,1.97
2019-06-20T09:23:26.421Z,1.57
2019-06-20T09:25:57.574Z,1.70
2019-06-20T09:28:28.059Z,1.60
2019-06-20T09:30:59.237Z,2.10
2019-06-20T09:33:29.654Z,2.00
2019-06-20T09:35:59.918Z,1.90
2019-06-20T09:38:30.364Z,1.73
2019-06-20T09:41:00.713Z,1.80
2019-06-20T09:43:31.031Z,2.00
2019-06-20T09:46:02.365Z,1.60
2019-06-20T09:48:33.006Z,1.77
2019-06-20T09:51:03.337Z,1.97
2019-06-20T09:53:33.656Z,2.07
2019-06-20T09:56:04.014Z,2.10
2019-06-20T09:58:34.406Z,2.33
2019-06-20T10:01:04.731Z,2.23
2019-06-20T10:03:35.092Z,2.60
2019-06-20T10:06:13.286Z,2.77
2019-06-20T10:08:37.414Z,2.70
2019-06-20T10:11:08.069Z,3.00
2019-06-20T10:13:38.385Z,3.17
2019-06-20T10:16:08.661Z,3.40
2019-06-20T10:18:38.974Z,3.40
2019-06-20T10:21:09.369Z,3.00
2019-06-20T10:23:39.753Z,3.10
2019-06-20T10:26:10.081Z,2.63
2019-06-20T10:28:40.476Z,3.00
2019-06-20T10:31:10.834Z,2.80
2019-06-20T10:33:41.210Z,2.60
2019-06-20T10:36:11.776Z,2.92
2019-06-20T10:38:42.181Z,3.00
2019-06-20T10:41:12.491Z,9.50
2019-06-20T10:43:43.036Z,24.43
2019-06-20T10:46:14.632Z,11.13
2019-06-20T10:48:45.988Z,16.83
2019-06-20T10:51:35.111Z,21.83
2019-06-20T10:54:05.669Z,16.87
2019-06-20T10:56:35.971Z,6.57
2019-06-20T10:59:11.844Z,3.37
2019-06-20T11:01:43.126Z,3.97
2019-06-20T11:04:14.428Z,2.90
2019-06-20T11:06:45.659Z,2.57
2019-06-20T11:09:18.255Z,2.20
2019-06-20T11:11:49.085Z,2.00
2019-06-20T11:14:19.550Z,2.00
2019-06-20T11:16:50.003Z,2.23
2019-06-20T11:19:20.312Z,2.70
2019-06-20T11:21:50.720Z,2.20
2019-06-20T11:24:20.999Z,2.37
2019-06-20T11:26:51.277Z,2.30
2019-06-20T11:29:21.597Z,1.87
2019-06-20T11:31:51.888Z,1.87
2019-06-20T11:34:24.995Z,1.80
2019-06-20T11:36:55.401Z,1.90
2019-06-20T11:39:25.723Z,2.23
2019-06-20T11:41:56.065Z,2.83
2019-06-20T11:44:26.467Z,2.40
2019-06-20T11:47:20.576Z,2.00
2019-06-20T11:49:50.558Z,53.90
2019-06-20T11:52:21.042Z,13.93
2019-06-20T11:54:51.487Z,6.60
2019-06-20T11:57:21.851Z,4.20
2019-06-20T11:59:52.238Z,20.50
2019-06-20T12:02:22.744Z,23.67
2019-06-20T12:04:53.070Z,32.53
2019-06-20T12:07:23.411Z,10.33
2019-06-20T12:09:53.757Z,4.30
2019-06-20T12:12:24.120Z,2.80
2019-06-20T12:14:54.432Z,2.27
2019-06-20T12:17:24.786Z,2.70
2019-06-20T12:19:55.149Z,1.90
2019-06-20T12:22:25.501Z,2.13
2019-06-20T12:24:55.816Z,2.20
2019-06-20T12:27:26.133Z,2.30
2019-06-20T12:29:56.799Z,2.33
2019-06-20T12:32:27.149Z,2.10
2019-06-20T12:34:57.717Z,2.07
2019-06-20T12:37:28.027Z,2.33
2019-06-20T12:39:58.325Z,2.20
2019-06-20T12:42:28.732Z,1.90
2019-06-20T12:44:59.205Z,1.80
2019-06-20T12:47:29.623Z,2.27
2019-06-20T12:50:00.020Z,2.40
2019-06-20T12:52:30.432Z,2.13
2019-06-20T12:55:01.310Z,1.93
2019-06-20T12:57:31.664Z,2.10
2019-06-20T13:00:02.149Z,2.10
2019-06-20T13:02:32.532Z,39.03
2019-06-20T13:05:02.908Z,40.50
2019-06-20T13:07:33.530Z,41.97
2019-06-20T13:10:04.359Z,8.60
2019-06-20T13:12:34.678Z,5.37
2019-06-20T13:15:06.201Z,3.67
2019-06-20T13:17:39.237Z,2.53
2019-06-20T13:20:08.833Z,2.83
2019-06-20T13:22:40.854Z,2.05
2019-06-20T13:25:12.938Z,2.03
2019-06-20T13:27:43.539Z,2.20
2019-06-20T13:30:14.091Z,2.27
2019-06-20T13:32:45.399Z,2.35
2019-06-20T13:35:16.729Z,2.50
2019-06-20T13:37:47.848Z,2.10
2019-06-20T13:40:19.447Z,2.43
2019-06-20T13:42:50.347Z,2.57
2019-06-20T13:45:23.056Z,2.22
2019-06-20T13:47:54.914Z,2.33
2019-06-20T13:50:25.851Z,2.63
2019-06-20T13:52:56.200Z,2.57
2019-06-20T13:55:26.587Z,2.52
2019-06-20T13:57:58.172Z,2.52
2019-06-20T14:00:28.595Z,2.40
2019-06-20T14:02:58.963Z,2.40
2019-06-20T14:05:29.312Z,2.20
2019-06-20T14:08:00.233Z,2.93
2019-06-20T14:10:30.668Z,2.80
2019-06-20T14:13:01.759Z,2.57
2019-06-20T14:15:32.169Z,2.33
2019-06-20T14:18:03.154Z,2.10
2019-06-20T14:20:34.597Z,2.43
2019-06-20T14:23:07.528Z,2.20
2019-06-20T14:25:38.675Z,2.00
2019-06-20T14:28:11.273Z,2.10
2019-06-20T14:30:44.455Z,2.20
2019-06-20T14:33:13.772Z,2.00
2019-06-20T14:35:46.059Z,1.83
2019-06-20T14:38:17.518Z,2.30
2019-06-20T14:40:48.309Z,2.30
2019-06-20T14:43:18.729Z,2.10
2019-06-20T14:45:50.648Z,2.07
2019-06-20T14:48:22.765Z,2.03
2019-06-20T14:50:53.422Z,2.93
2019-06-20T14:53:24.868Z,2.20
2019-06-20T14:55:55.253Z,2.20
2019-06-20T14:58:25.637Z,1.80
2019-06-20T15:00:55.982Z,2.10
2019-06-20T15:03:26.279Z,2.23
2019-06-20T15:05:56.057Z,2.57
2019-06-20T15:08:25.718Z,2.20
2019-06-20T15:10:55.364Z,2.50
2019-06-20T15:13:25.056Z,2.00
2019-06-20T15:15:55.665Z,1.80
2019-06-20T15:18:25.333Z,1.70
2019-06-20T15:20:58.969Z,1.47
2019-06-20T15:23:27.124Z,1.90
2019-06-20T15:25:57.522Z,1.77
2019-06-20T15:28:27.800Z,1.87
2019-06-20T15:30:57.543Z,1.82
2019-06-20T15:33:27.110Z,2.05
2019-06-20T15:35:58.328Z,1.90
2019-06-20T15:38:29.023Z,1.57
2019-06-20T15:40:59.272Z,1.40
2019-06-20T15:43:29.863Z,1.95
2019-06-20T15:46:00.198Z,2.30
2019-06-20T15:48:30.475Z,2.33
2019-06-20T15:51:00.750Z,2.15
2019-06-20T15:53:31.148Z,1.90
2019-06-20T15:56:01.652Z,2.25
2019-06-20T15:58:32.165Z,2.10
2019-06-20T16:01:02.582Z,1.60
2019-06-20T16:03:32.966Z,2.30
2019-06-20T16:06:03.521Z,2.33
2019-06-20T16:08:33.359Z,1.98
2019-06-20T16:11:03.004Z,2.12
2019-06-20T16:13:32.728Z,5.58
2019-06-20T16:16:02.989Z,3.42
2019-06-20T16:18:33.360Z,2.37
2019-06-20T16:21:03.674Z,4.22
2019-06-20T16:23:34.076Z,11.48
2019-06-20T16:26:04.465Z,47.90
2019-06-20T16:28:37.063Z,35.68
2019-06-20T16:31:13.247Z,46.37
2019-06-20T16:33:39.519Z,17.93
2019-06-20T16:36:12.891Z,12.17
2019-06-20T16:38:41.994Z,10.40
2019-06-20T16:41:12.333Z,12.23
2019-06-20T16:43:42.714Z,5.92
2019-06-20T16:46:13.028Z,3.85
2019-06-20T16:48:43.423Z,3.97
2019-06-20T16:51:13.908Z,3.67
2019-06-20T16:53:44.210Z,3.10
2019-06-20T16:56:14.525Z,2.93
2019-06-20T16:58:44.807Z,29.27
2019-06-20T17:01:15.306Z,17.43
2019-06-20T17:03:45.639Z,16.80
2019-06-20T17:06:15.969Z,16.43
2019-06-20T17:08:46.394Z,12.63
2019-06-20T17:11:16.811Z,6.20
2019-06-20T17:13:47.142Z,4.50
2019-06-20T17:16:17.516Z,6.45
2019-06-20T17:18:47.867Z,4.87
2019-06-20T17:21:18.372Z,5.87
2019-06-20T17:23:48.679Z,4.57
2019-06-20T17:26:19.047Z,5.70
2019-06-20T17:28:49.333Z,7.30
2019-06-20T17:31:19.739Z,6.73
2019-06-20T17:33:57.477Z,7.85
2019-06-20T17:36:22.110Z,6.20
2019-06-20T17:38:52.607Z,6.93
2019-06-20T17:41:23.228Z,7.70
2019-06-20T17:43:53.603Z,6.05
2019-06-20T17:46:23.983Z,5.28
2019-06-20T17:48:54.367Z,4.90
2019-06-20T17:51:24.681Z,4.17
2019-06-20T17:53:54.945Z,3.57
2019-06-20T17:56:25.256Z,3.27
2019-06-20T17:58:55.607Z,7.47
2019-06-20T18:01:25.954Z,5.90
2019-06-20T18:03:56.220Z,5.23
2019-06-20T18:06:26.543Z,3.90
2019-06-20T18:08:56.873Z,2.83
2019-06-20T18:11:27.181Z,3.07
2019-06-20T18:13:57.585Z,4.90
2019-06-20T18:16:27.865Z,3.97
2019-06-20T18:18:58.127Z,2.60
2019-06-20T18:21:28.480Z,3.43
2019-06-20T18:23:58.933Z,2.60
2019-06-20T18:26:28.892Z,2.30
2019-06-20T18:28:59.208Z,2.77
2019-06-20T18:31:29.795Z,3.20
2019-06-20T18:34:00.179Z,4.13
2019-06-20T18:36:30.547Z,4.43
2019-06-20T18:39:01.311Z,5.40
2019-06-20T18:41:31.647Z,11.57
2019-06-20T18:44:02.132Z,10.33
2019-06-20T18:46:32.692Z,5.50
2019-06-20T18:49:03.034Z,2.67
2019-06-20T18:51:33.341Z,2.20
2019-06-20T18:54:04.617Z,2.77
2019-06-20T18:56:35.063Z,2.80
2019-06-20T18:59:05.412Z,2.90
2019-06-20T19:01:35.794Z,3.27
2019-06-20T19:04:06.309Z,1.90
2019-06-20T19:06:36.659Z,2.10
2019-06-20T19:09:08.519Z,3.10
2019-06-20T19:11:38.781Z,2.60
2019-06-20T19:14:12.456Z,2.13
2019-06-20T19:16:41.254Z,2.47
2019-06-20T19:19:11.619Z,1.70
2019-06-20T19:21:41.927Z,3.40
2019-06-20T19:24:12.187Z,2.60
2019-06-20T19:26:42.578Z,2.40
2019-06-20T19:29:12.845Z,3.87
2019-06-20T19:31:43.166Z,5.67
2019-06-20T19:34:13.501Z,7.23
2019-06-20T19:36:43.849Z,7.50
2019-06-20T19:39:14.359Z,4.83
2019-06-20T19:41:44.770Z,4.97
2019-06-20T19:44:15.221Z,4.53
2019-06-20T19:46:45.666Z,5.60
2019-06-20T19:49:16.054Z,5.30
2019-06-20T19:51:46.451Z,2.57
2019-06-20T19:54:16.840Z,4.90
2019-06-20T19:56:47.224Z,2.73
2019-06-20T19:59:17.554Z,2.10
2019-06-20T20:01:47.352Z,1.87
2019-06-20T20:04:17.044Z,2.40
2019-06-20T20:06:46.656Z,2.23
2019-06-20T20:09:16.236Z,2.00
2019-06-20T20:11:45.970Z,2.80
2019-06-20T20:14:16.299Z,6.00
2019-06-20T20:16:46.149Z,6.33
2019-06-20T20:19:15.892Z,3.73
2019-06-20T20:21:45.623Z,2.97
2019-06-20T20:24:15.425Z,2.87
2019-06-20T20:26:45.155Z,3.70
2019-06-20T20:29:14.851Z,4.57
2019-06-20T20:31:44.466Z,3.07
2019-06-20T20:34:14.341Z,2.70
2019-06-20T20:36:44.034Z,3.50
2019-06-20T20:39:16.823Z,2.73
2019-06-20T20:41:45.006Z,3.37
2019-06-20T20:44:14.666Z,2.67
2019-06-20T20:46:44.309Z,2.00
2019-06-20T20:49:14.012Z,1.40
2019-06-20T20:51:44.280Z,1.37
2019-06-20T20:54:13.991Z,1.40
2019-06-20T20:56:43.552Z,1.27
2019-06-20T20:59:13.746Z,1.37
2019-06-20T21:01:44.083Z,1.30
2019-06-20T21:04:14.437Z,1.40
2019-06-20T21:06:44.992Z,1.53
2019-06-20T21:09:15.322Z,1.97
2019-06-20T21:11:45.696Z,8.03
2019-06-20T21:14:16.312Z,7.23
2019-06-20T21:16:46.585Z,28.30
2019-06-20T21:19:19.999Z,25.40
2019-06-20T21:21:50.444Z,12.33
2019-06-20T21:24:20.799Z,7.20
2019-06-20T21:26:51.148Z,25.47
2019-06-20T21:29:21.464Z,12.93
2019-06-20T21:31:51.850Z,12.67
2019-06-20T21:34:22.283Z,8.73
2019-06-20T21:36:52.616Z,6.07
2019-06-20T21:39:24.131Z,5.07
2019-06-20T21:41:54.553Z,5.27
2019-06-20T21:44:24.986Z,2.93
2019-06-20T21:46:55.337Z,3.73
2019-06-20T21:49:25.687Z,2.63
2019-06-20T21:51:56.007Z,3.20
2019-06-20T21:54:26.315Z,3.40
2019-06-20T21:56:56.736Z,3.13
2019-06-20T21:59:27.084Z,2.80
2019-06-20T22:01:57.697Z,2.33
2019-06-20T22:04:28.055Z,11.73
2019-06-20T22:06:57.842Z,23.77
2019-06-20T22:09:30.562Z,15.87
2019-06-20T22:12:00.183Z,10.83
2019-06-20T22:14:32.447Z,10.17
2019-06-20T22:17:01.418Z,16.60
2019-06-20T22:19:31.059Z,15.80
2019-06-20T22:22:01.257Z,25.00
2019-06-20T22:24:30.966Z,22.93
2019-06-20T22:27:01.181Z,33.23
2019-06-20T22:29:31.514Z,12.23
2019-06-20T22:32:01.928Z,19.20
2019-06-20T22:34:31.667Z,7.33
2019-06-20T22:37:01.447Z,7.63
2019-06-20T22:39:30.992Z,5.67
2019-06-20T22:42:01.206Z,5.53
2019-06-20T22:44:30.790Z,3.80
2019-06-20T22:47:00.515Z,3.30
2019-06-20T22:49:30.189Z,2.93
2019-06-20T22:51:59.898Z,4.03
2019-06-20T22:54:29.974Z,3.60
2019-06-20T22:56:59.599Z,2.77
2019-06-20T22:59:29.179Z,2.50
2019-06-20T23:01:58.794Z,2.90
2019-06-20T23:04:28.936Z,2.90
2019-06-20T23:06:59.279Z,2.80
2019-06-20T23:09:29.506Z,2.40
2019-06-20T23:11:59.783Z,2.83
2019-06-20T23:14:30.047Z,3.00
2019-06-20T23:17:00.369Z,3.20
2019-06-20T23:19:30.729Z,3.10
2019-06-20T23:22:01.272Z,2.73
2019-06-20T23:24:31.544Z,2.80
2019-06-20T23:27:01.953Z,2.83
2019-06-20T23:29:32.211Z,2.47
2019-06-20T23:32:01.936Z,2.30
2019-06-20T23:34:32.207Z,2.47
2019-06-20T23:37:12.425Z,2.90
2019-06-20T23:39:34.600Z,2.30
2019-06-20T23:42:04.294Z,3.07
2019-06-20T23:44:33.863Z,3.40
2019-06-20T23:47:03.518Z,3.03
2019-06-20T23:49:33.207Z,2.63
2019-06-20T23:52:07.605Z,2.70
2019-06-20T23:54:37.376Z,2.70
2019-06-20T23:57:07.051Z,2.37
2019-06-20T23:59:36.607Z,2.50
